»·PEaware :: N5303J KEUG-KEUG

N5303J :: KEUG-KEUG

FLIGHT INFORMATION

Flight Status: Arrived
Operator: Privately registered:
United States
More flights under this callsign
Pilot: Cory D. (20223)
Aircraft: CESSNA 172 SKYHAWK
(C172)
More flights by this aircraft type
Origin: KEUG Mahlon Sweet
United States
Destination: KEUG Mahlon Sweet
United States
More flights between these airports :: More routes between these airports
Route: +MACTA
File this flight plan on PilotEdge
Remarks: ILS 16R MULTIPLE APPROACHES
Altitude:
(Current/Filed)
4,000ft
Speed:
(Current/Filed)
110kts
Departed: 30-Aug-18 02:27 PM
Arrived: 30-Aug-18 03:34 PM
Distance/Time
Traveled:
0nm/1:07
Distance/Time
To Go:
Arrived

Flight Plot

Page will automatically refresh every two minutes.

Flight plan parsing failed; only flown route is shown


Map Options




Map Legend


Flown Route
Filed Route
Departure Airport
Arrival Airport
Navaid (VOR, NDB)
Fix

Horizontal Profiles

Position Reports

Time Latitude Longitude Heading Altitude Ground
Speed
30-Aug-18 14:15 44.117933 -123.215182 42 378ft 0kts
30-Aug-18 14:16 44.117933 -123.215182 42 378ft 0kts
30-Aug-18 14:17 44.117933 -123.215182 42 378ft 0kts
30-Aug-18 14:18 44.117933 -123.215182 42 378ft 0kts
30-Aug-18 14:19 44.117933 -123.215182 42 378ft 0kts
30-Aug-18 14:20 44.117933 -123.215182 42 378ft 0kts
30-Aug-18 14:21 44.117933 -123.215182 42 378ft 0kts
30-Aug-18 14:22 44.117933 -123.215182 42 378ft 0kts
30-Aug-18 14:23 44.118600 -123.214668 346 378ft 8kts
30-Aug-18 14:24 44.122673 -123.217024 0 378ft 24kts
30-Aug-18 14:25 44.131657 -123.217190 358 378ft 39kts
30-Aug-18 14:26 44.135317 -123.218099 273 378ft 0kts
30-Aug-18 14:27 44.135275 -123.218905 242 378ft 13kts
30-Aug-18 14:28 44.118884 -123.219033 178 762ft 89kts
30-Aug-18 14:29 44.093779 -123.218461 178 1642ft 91kts
30-Aug-18 14:30 44.068666 -123.217847 178 2498ft 90kts
30-Aug-18 14:31 44.048770 -123.230259 270 3297ft 91kts
30-Aug-18 14:32 44.066720 -123.254032 324 3899ft 106kts
30-Aug-18 14:33 44.092824 -123.278945 325 3940ft 125kts
30-Aug-18 14:34 44.123959 -123.288113 356 3903ft 129kts
30-Aug-18 14:35 44.159118 -123.290334 357 3898ft 128kts
30-Aug-18 14:36 44.194524 -123.292526 357 3890ft 130kts
30-Aug-18 14:37 44.230624 -123.294786 357 3849ft 128kts
30-Aug-18 14:38 44.265775 -123.297095 357 3869ft 128kts
30-Aug-18 14:39 44.301414 -123.299517 356 3815ft 129kts
30-Aug-18 14:40 44.326323 -123.278613 105 3741ft 124kts
30-Aug-18 14:42 44.298131 -123.249339 150 2454ft 124kts
30-Aug-18 14:42 44.273788 -123.228766 149 2467ft 128kts
30-Aug-18 14:44 44.232323 -123.220422 177 2279ft 141kts
30-Aug-18 14:44 44.199057 -123.219677 179 1655ft 146kts
30-Aug-18 14:45 44.158408 -123.219231 179 866ft 147kts
30-Aug-18 14:47 44.117753 -123.225173 226 1248ft 94kts
30-Aug-18 14:47 44.106402 -123.246071 215 2123ft 80kts
30-Aug-18 14:48 44.088559 -123.264095 215 3016ft 79kts
30-Aug-18 14:49 44.071413 -123.282870 218 3857ft 78kts
30-Aug-18 14:50 44.055648 -123.303337 224 4650ft 78kts
30-Aug-18 14:51 44.036860 -123.332031 231 4846ft 112kts
30-Aug-18 14:52 44.015122 -123.368406 229 4846ft 127kts
30-Aug-18 14:53 43.991759 -123.405614 226 4824ft 128kts
30-Aug-18 14:54 43.967375 -123.439731 224 4807ft 128kts
30-Aug-18 14:55 43.940963 -123.475110 221 4790ft 128kts
30-Aug-18 14:56 43.925549 -123.515333 277 4757ft 129kts
30-Aug-18 14:57 43.947691 -123.537483 42 4679ft 130kts
30-Aug-18 14:58 43.943690 -123.492054 112 4729ft 127kts
30-Aug-18 14:59 43.959650 -123.453971 39 4815ft 124kts
30-Aug-18 15:00 43.975382 -123.478007 228 4752ft 129kts
30-Aug-18 15:01 43.948587 -123.510210 219 4776ft 127kts
30-Aug-18 15:02 43.932428 -123.486535 48 4720ft 129kts
30-Aug-18 15:03 43.952036 -123.449671 103 3810ft 133kts
30-Aug-18 15:04 43.930479 -123.414202 125 3708ft 115kts
30-Aug-18 15:05 43.912382 -123.374328 111 3607ft 135kts
30-Aug-18 15:06 43.900022 -123.327288 104 3573ft 134kts
30-Aug-18 15:07 43.891705 -123.280351 103 3566ft 135kts
30-Aug-18 15:08 43.883976 -123.232229 98 3639ft 130kts
30-Aug-18 15:09 43.899292 -123.201282 345 3417ft 121kts
30-Aug-18 15:10 43.933605 -123.197870 5 2605ft 134kts
30-Aug-18 15:11 43.967346 -123.196992 352 2453ft 120kts
30-Aug-18 15:12 43.999146 -123.201118 359 2473ft 102kts
30-Aug-18 15:13 44.025725 -123.204580 352 2070ft 79kts
30-Aug-18 15:14 44.049529 -123.209812 351 1830ft 94kts
30-Aug-18 15:15 44.074805 -123.214558 354 1344ft 91kts
30-Aug-18 15:16 44.097732 -123.218735 356 777ft 77kts
30-Aug-18 15:17 44.121871 -123.218835 354 1223ft 73kts
30-Aug-18 15:18 44.143301 -123.221268 354 2131ft 79kts
30-Aug-18 15:19 44.164755 -123.223728 354 3032ft 78kts
30-Aug-18 15:20 44.185941 -123.224052 31 3877ft 79kts
30-Aug-18 15:21 44.210705 -123.193896 41 3246ft 145kts
30-Aug-18 15:22 44.238956 -123.158013 48 2736ft 138kts
30-Aug-18 15:23 44.262768 -123.122432 43 2910ft 126kts
30-Aug-18 15:24 44.289003 -123.089052 42 2864ft 128kts
30-Aug-18 15:25 44.323472 -123.089262 352 2823ft 131kts
30-Aug-18 15:26 44.339167 -123.126915 272 2814ft 129kts
30-Aug-18 15:27 44.343029 -123.178597 258 1935ft 128kts
30-Aug-18 15:28 44.318959 -123.205454 214 1824ft 107kts
30-Aug-18 15:29 44.294292 -123.219970 174 1829ft 109kts
30-Aug-18 15:30 44.266464 -123.220338 189 1888ft 105kts
30-Aug-18 15:31 44.236499 -123.220259 177 1790ft 114kts
30-Aug-18 15:32 44.205273 -123.221339 180 1256ft 109kts
30-Aug-18 15:33 44.175918 -123.219149 185 918ft 117kts
30-Aug-18 15:34 44.148134 -123.220832 166 647ft 91kts
30-Aug-18 15:35 44.128866 -123.219032 179 378ft 31kts
30-Aug-18 15:36 44.125335 -123.217798 149 378ft 5kts
30-Aug-18 15:37 44.120429 -123.216996 177 378ft 24kts
30-Aug-18 15:38 44.115448 -123.215927 113 378ft 0kts

Navigation Log

Ident Type
Flight plan parsing failed, navigation log unavailable